Time;durP1;ratioP1;P1;durP2;ratioP2;P2;SDS_P1;SDS_P2;PMS_P1;PMS_P2;Temp;Humidity;BMP_temperature;BMP_pressure;BME280_temperature;BME280_humidity;BME280_pressure;Samples;Min_cycle;Max_cycle;Signal;HPM_P1;HPM_P2
2023/06/28 00:00:15;;;;;;;;;6.75;4.75;;;;;24.35;41.12;101457.75;2101912;27;45012;-57
2023/06/28 00:01:15;;;;;;;;;5.20;5.20;;;;;24.34;40.87;101455.16;2104718;28;46061;-56
2023/06/28 00:02:16;;;;;;;;;5.25;3.75;;;;;24.34;41.45;101456.03;2104741;28;46385;-58
2023/06/28 00:03:16;;;;;;;;;7.00;7.00;;;;;24.33;41.14;101448.88;2101853;27;45167;-58
2023/06/28 00:04:16;;;;;;;;;9.50;8.50;;;;;24.33;41.11;101448.88;2110637;27;46697;-58
2023/06/28 00:05:17;;;;;;;;;7.00;6.00;;;;;24.33;41.14;101448.00;2105060;27;45601;-57
2023/06/28 00:06:19;;;;;;;;;6.25;6.25;;;;;24.31;41.03;101453.53;2104839;27;45812;-56
2023/06/28 00:07:20;;;;;;;;;9.20;9.20;;;;;24.31;41.12;101447.22;2111374;27;47127;-58
2023/06/28 00:08:21;;;;;;;;;6.25;6.25;;;;;24.29;41.24;101450.03;2104354;27;45766;-60
2023/06/28 00:09:21;;;;;;;;;11.40;11.40;;;;;24.27;41.28;101445.69;2101992;27;45717;-59
2023/06/28 00:10:21;;;;;;;;;16.00;15.00;;;;;24.27;41.32;101445.69;2099191;28;45933;-57
2023/06/28 00:11:22;;;;;;;;;9.50;9.50;;;;;24.25;41.55;101444.88;2104829;27;45820;-58
2023/06/28 00:12:22;;;;;;;;;5.00;4.75;;;;;24.22;41.20;101443.25;2108697;27;45796;-57
2023/06/28 00:13:23;;;;;;;;;6.00;5.75;;;;;24.21;41.24;101443.38;2107928;27;46611;-56
2023/06/28 00:14:23;;;;;;;;;7.20;4.80;;;;;24.20;41.26;101437.06;2103854;27;46361;-57
2023/06/28 00:15:24;;;;;;;;;10.00;10.00;;;;;24.20;41.39;101444.34;2111360;27;45064;-57
2023/06/28 00:16:24;;;;;;;;;8.75;7.75;;;;;24.17;41.69;101442.72;2104411;27;47196;-58
2023/06/28 00:17:28;;;;;;;;;4.00;4.00;;;;;24.16;41.34;101443.69;2105595;27;45900;-57
2023/06/28 00:18:30;;;;;;;;;2.20;2.20;;;;;24.14;41.32;101439.31;2111405;27;46633;-57
2023/06/28 00:19:30;;;;;;;;;4.60;3.60;;;;;24.12;41.48;101441.25;2103003;27;46448;-58
2023/06/28 00:20:30;;;;;;;;;4.25;4.25;;;;;24.11;41.59;101431.38;2109384;27;45275;-57
2023/06/28 00:21:31;;;;;;;;;3.00;3.00;;;;;24.10;41.51;101441.38;2109232;27;46239;-57
2023/06/28 00:22:31;;;;;;;;;2.00;2.00;;;;;24.07;41.80;101437.03;2107302;27;46545;-57
2023/06/28 00:23:32;;;;;;;;;5.00;4.00;;;;;24.05;41.57;101436.25;2112467;27;45113;-57
2023/06/28 00:24:32;;;;;;;;;4.00;3.00;;;;;24.05;41.97;101438.97;2106065;27;46436;-58
2023/06/28 00:25:32;;;;;;;;;6.00;4.00;;;;;24.04;41.71;101431.81;2109546;27;46257;-59
2023/06/28 00:26:32;;;;;;;;;3.67;3.00;;;;;24.06;41.18;101435.28;2100665;27;45226;-58
2023/06/28 00:27:33;;;;;;;;;3.00;3.00;;;;;24.05;41.73;101436.25;2094808;28;45596;-56
2023/06/28 00:28:33;;;;;;;;;3.67;3.33;;;;;24.06;41.62;101437.13;2094296;28;45927;-56
2023/06/28 00:29:33;;;;;;;;;4.00;4.00;;;;;24.06;41.79;101437.13;2103687;27;45780;-59
2023/06/28 00:30:34;;;;;;;;;3.67;3.00;;;;;24.04;41.67;101431.81;2101071;28;47319;-59
2023/06/28 00:31:34;;;;;;;;;3.00;3.00;;;;;24.04;41.66;101431.81;2105344;27;46877;-59
2023/06/28 00:32:35;;;;;;;;;3.00;3.00;;;;;24.03;41.76;101438.22;2101554;27;46625;-58
2023/06/28 00:33:37;;;;;;;;;1.75;1.75;;;;;24.02;41.60;101436.47;2102451;28;47114;-59
2023/06/28 00:34:37;;;;;;;;;5.20;2.40;;;;;24.01;41.74;101437.44;2105982;27;46324;-62
2023/06/28 00:35:37;;;;;;;;;2.00;2.00;;;;;24.00;41.84;101429.38;2101968;27;46484;-60
2023/06/28 00:36:38;;;;;;;;;4.00;4.00;;;;;23.98;41.84;101432.19;2104627;28;45143;-58
2023/06/28 00:37:38;;;;;;;;;2.67;2.00;;;;;24.00;41.97;101430.25;2103994;27;45792;-57
2023/06/28 00:38:39;;;;;;;;;1.25;1.25;;;;;23.98;41.77;101428.63;2106372;28;47684;-58
2023/06/28 00:39:39;;;;;;;;;2.50;1.75;;;;;23.97;41.69;101429.59;2106708;27;46682;-56
2023/06/28 00:40:39;;;;;;;;;6.00;4.75;;;;;23.96;41.92;101434.16;2102138;27;45826;-57
2023/06/28 00:41:40;;;;;;;;;4.75;4.75;;;;;23.94;41.94;101430.69;2101890;28;45554;-57
2023/06/28 00:42:40;;;;;;;;;5.00;4.00;;;;;23.94;41.95;101429.81;2106184;27;46358;-59
2023/06/28 00:43:40;;;;;;;;;4.00;4.00;;;;;23.94;42.18;101432.53;2102146;27;45823;-61
2023/06/28 00:44:41;;;;;;;;;4.00;4.00;;;;;23.94;42.27;101429.81;2106799;27;46513;-57
2023/06/28 00:45:41;;;;;;;;;3.75;3.75;;;;;23.93;42.33;101441.63;2110758;27;45664;-58
2023/06/28 00:46:41;;;;;;;;;3.50;3.50;;;;;23.92;42.12;101431.75;2106649;27;46140;-57
2023/06/28 00:47:42;;;;;;;;;4.75;3.75;;;;;23.90;41.88;101431.88;2107108;27;46221;-57
2023/06/28 00:48:43;;;;;;;;;3.20;3.20;;;;;23.89;42.23;101435.53;2106685;27;46637;-57
2023/06/28 00:49:44;;;;;;;;;5.80;4.20;;;;;23.89;42.39;101434.69;2110254;27;46231;-58
2023/06/28 00:50:46;;;;;;;;;4.50;2.75;;;;;23.90;42.13;101433.69;2111410;27;45726;-57
2023/06/28 00:51:46;;;;;;;;;3.75;1.25;;;;;23.89;42.42;101431.97;2105744;27;46167;-57
2023/06/28 00:52:47;;;;;;;;;2.67;2.00;;;;;23.87;42.18;101429.31;2111610;27;46534;-57
2023/06/28 00:53:47;;;;;;;;;3.00;3.00;;;;;23.88;42.25;101430.19;2106624;27;45960;-56
2023/06/28 00:54:48;;;;;;;;;4.00;3.00;;;;;23.89;42.31;101431.97;2107628;27;45992;-58
2023/06/28 00:55:48;;;;;;;;;3.00;3.00;;;;;23.88;42.19;101430.19;2098038;28;45893;-59
2023/06/28 00:56:50;;;;;;;;;2.67;2.67;;;;;23.88;42.13;101431.06;2089870;28;46086;-57
2023/06/28 00:57:50;;;;;;;;;3.25;3.00;;;;;23.87;41.70;101429.31;2097558;28;45493;-58
2023/06/28 00:58:51;;;;;;;;;3.00;3.00;;;;;23.87;42.12;101418.47;2107005;27;45638;-56
2023/06/28 00:59:53;;;;;;;;;4.33;4.00;;;;;23.89;42.18;101426.53;2110879;27;46452;-58
2023/06/28 01:00:53;;;;;;;;;3.75;3.75;;;;;23.88;42.24;101422.06;2106204;27;46854;-58
2023/06/28 01:01:54;;;;;;;;;4.00;2.00;;;;;23.89;42.18;101426.53;2110432;27;46208;-58
2023/06/28 01:02:54;;;;;;;;;3.00;2.00;;;;;23.89;42.45;101421.13;2107936;27;45658;-57
2023/06/28 01:04:00;;;;;;;;;4.67;4.00;;;;;23.88;41.92;101419.34;2101300;28;45681;-60
2023/06/28 01:05:03;;;;;;;;;3.00;3.00;;;;;23.89;42.16;101427.41;2097764;28;46366;-59
2023/06/28 01:06:04;;;;;;;;;3.00;3.00;;;;;23.90;42.56;101428.28;2106628;27;46868;-61
2023/06/28 01:07:05;;;;;;;;;4.00;4.00;;;;;23.88;42.18;101420.22;2110544;27;46236;-57
2023/06/28 01:08:07;;;;;;;;;3.75;3.75;;;;;23.88;42.24;101425.66;2106934;27;48229;-56
2023/06/28 01:09:10;;;;;;;;;4.75;3.00;;;;;23.88;42.40;101419.34;2110006;27;45229;-58
2023/06/28 01:10:11;;;;;;;;;4.75;4.75;;;;;23.88;42.25;101424.78;2099148;27;46068;-57
2023/06/28 01:11:11;;;;;;;;;3.67;2.33;;;;;23.86;42.56;101419.47;2099817;28;46466;-58
2023/06/28 01:12:12;;;;;;;;;4.67;4.67;;;;;23.88;42.03;101430.19;2114670;27;46081;-58
2023/06/28 01:13:12;;;;;;;;;4.33;4.33;;;;;23.88;42.11;101424.78;2107863;27;45963;-58
2023/06/28 01:14:13;;;;;;;;;4.00;2.67;;;;;23.88;42.07;101424.78;2105480;28;46784;-57
2023/06/28 01:15:14;;;;;;;;;3.00;3.00;;;;;23.88;42.14;101422.94;2104569;27;45071;-58
2023/06/28 01:16:14;;;;;;;;;3.33;3.33;;;;;23.87;42.47;101425.75;2094422;28;46499;-57
2023/06/28 01:17:14;;;;;;;;;2.67;2.00;;;;;23.86;42.15;101424.88;2097567;28;45961;-59
2023/06/28 01:18:19;;;;;;;;;3.00;3.00;;;;;23.86;42.36;101432.16;2103356;27;46531;-57
2023/06/28 01:19:25;;;;;;;;;1.00;1.00;;;;;23.85;41.90;101423.16;2104166;27;45940;-56
2023/06/28 01:20:30;;;;;;;;;2.25;1.50;;;;;23.84;42.16;101424.13;2105990;28;45849;-57
2023/06/28 01:21:35;;;;;;;;;7.00;1.75;;;;;23.84;42.21;101428.66;2108299;27;45701;-58
2023/06/28 01:22:40;;;;;;;;;2.00;2.00;;;;;23.80;42.22;101427.13;2108785;27;46846;-57
2023/06/28 01:23:40;;;;;;;;;3.50;2.75;;;;;23.77;42.21;101428.22;2114480;27;46312;-57
2023/06/28 01:24:41;;;;;;;;;4.00;4.00;;;;;23.74;42.14;101421.13;2108350;27;45847;-55
2023/06/28 01:25:42;;;;;;;;;5.00;4.00;;;;;23.74;42.54;101426.56;2111045;27;45190;-56
2023/06/28 01:26:43;;;;;;;;;4.00;4.00;;;;;23.74;42.35;101425.69;2102373;27;46210;-57
2023/06/28 01:27:44;;;;;;;;;2.00;2.00;;;;;23.75;42.34;101419.28;2104512;28;45584;-56
2023/06/28 01:28:45;;;;;;;;;2.75;2.75;;;;;23.74;42.31;101418.44;2102224;28;46331;-57
2023/06/28 01:29:47;;;;;;;;;2.25;2.25;;;;;23.73;42.38;101418.53;2097448;28;45616;-57
2023/06/28 01:30:52;;;;;;;;;3.25;2.75;;;;;23.72;42.39;101420.38;2104871;28;46113;-56
2023/06/28 01:31:55;;;;;;;;;2.00;1.50;;;;;23.71;42.28;101418.63;2105849;28;46896;-56
2023/06/28 01:32:55;;;;;;;;;1.50;1.50;;;;;23.71;42.49;101420.47;2105834;28;46469;-55
2023/06/28 01:33:56;;;;;;;;;2.67;2.67;;;;;23.71;42.41;101421.34;2099740;28;46271;-57
2023/06/28 01:34:56;;;;;;;;;2.00;2.00;;;;;23.70;42.46;101416.91;2097892;28;45683;-58
2023/06/28 01:35:57;;;;;;;;;3.00;1.33;;;;;23.70;42.64;101416.91;2105757;28;46135;-55
2023/06/28 01:37:00;;;;;;;;;3.25;2.50;;;;;23.70;42.66;101416.03;2105785;27;46215;-57
2023/06/28 01:38:00;;;;;;;;;3.75;2.75;;;;;23.71;42.31;101420.47;2105984;28;45541;-57
2023/06/28 01:39:01;;;;;;;;;3.00;1.67;;;;;23.71;42.28;101417.75;2105830;27;46142;-58
2023/06/28 01:40:02;;;;;;;;;2.33;2.33;;;;;23.70;42.37;101416.91;2105468;28;45566;-57
2023/06/28 01:41:04;;;;;;;;;2.50;2.00;;;;;23.71;42.25;101418.63;2102470;28;45410;-57
2023/06/28 01:42:05;;;;;;;;;3.00;3.00;;;;;23.70;42.37;101418.75;2099518;28;46388;-56
2023/06/28 01:43:07;;;;;;;;;2.00;2.00;;;;;23.69;42.50;101419.72;2105224;28;45268;-56
2023/06/28 01:44:07;;;;;;;;;3.25;2.00;;;;;23.68;42.37;101417.97;2105389;28;46497;-56
2023/06/28 01:45:08;;;;;;;;;1.67;1.67;;;;;23.68;42.40;101415.25;2105522;28;45304;-57
2023/06/28 01:46:10;;;;;;;;;4.00;3.25;;;;;23.67;42.29;101417.09;2105742;28;46326;-57
2023/06/28 01:47:11;;;;;;;;;5.25;3.75;;;;;23.65;42.39;101412.75;2105484;28;45562;-57
2023/06/28 01:48:12;;;;;;;;;1.00;1.00;;;;;23.63;42.09;101418.28;2105704;28;45462;-57
2023/06/28 01:49:13;;;;;;;;;2.25;2.00;;;;;23.62;42.54;101413.81;2105720;28;45706;-56
2023/06/28 01:50:15;;;;;;;;;3.33;3.33;;;;;23.62;42.47;101411.09;2105721;28;45107;-56
2023/06/28 01:51:15;;;;;;;;;3.00;3.00;;;;;23.60;42.47;101404.91;2105458;28;46568;-57
2023/06/28 01:52:16;;;;;;;;;2.33;2.33;;;;;23.60;42.50;101409.47;2105359;28;46446;-57
2023/06/28 01:53:17;;;;;;;;;1.33;1.33;;;;;23.59;42.43;101407.72;2105623;28;46211;-57
2023/06/28 01:54:18;;;;;;;;;2.00;2.00;;;;;23.57;42.84;101406.94;2105613;27;46228;-57
2023/06/28 01:55:18;;;;;;;;;2.00;2.00;;;;;23.56;42.43;101406.06;2105932;28;46258;-57
2023/06/28 01:56:19;;;;;;;;;2.33;1.33;;;;;23.57;42.43;101409.63;2105621;28;46015;-56
2023/06/28 01:57:19;;;;;;;;;1.67;1.67;;;;;23.56;42.52;101411.47;2105737;28;45687;-57
2023/06/28 01:58:20;;;;;;;;;2.00;2.00;;;;;23.54;42.26;101405.28;2098346;28;46427;-57
2023/06/28 01:59:20;;;;;;;;;2.00;2.00;;;;;23.53;42.88;101406.25;2098946;28;46253;-57
2023/06/28 02:00:21;;;;;;;;;2.00;2.00;;;;;23.51;42.89;101408.22;2105325;28;46477;-57
2023/06/28 02:01:21;;;;;;;;;4.33;4.33;;;;;23.50;42.95;101414.56;2103875;28;45247;-57
2023/06/28 02:02:22;;;;;;;;;3.00;3.00;;;;;23.47;42.47;101410.22;2106078;28;45647;-57
2023/06/28 02:03:22;;;;;;;;;3.67;3.67;;;;;23.44;42.63;101414.97;2103651;28;46497;-59
2023/06/28 02:04:22;;;;;;;;;3.00;3.00;;;;;23.42;42.66;101408.78;2105434;28;45920;-57
2023/06/28 02:05:23;;;;;;;;;4.00;4.00;;;;;23.39;42.79;101411.72;2105756;28;46359;-56
2023/06/28 02:06:23;;;;;;;;;3.67;3.67;;;;;23.36;42.82;101407.34;2098464;27;45213;-56
2023/06/28 02:07:23;;;;;;;;;3.67;3.00;;;;;23.36;42.68;101414.59;2098749;28;46541;-56
2023/06/28 02:08:24;;;;;;;;;4.67;4.67;;;;;23.34;42.80;101406.56;2099309;28;45597;-56
2023/06/28 02:09:24;;;;;;;;;3.00;3.00;;;;;23.32;42.81;101408.50;2101984;28;46468;-56
2023/06/28 02:10:24;;;;;;;;;3.00;3.00;;;;;23.30;42.82;101407.75;2098760;28;46118;-56
2023/06/28 02:11:25;;;;;;;;;4.67;4.00;;;;;23.30;43.09;101412.28;2106263;27;46074;-56
2023/06/28 02:12:26;;;;;;;;;5.75;5.00;;;;;23.28;42.86;101397.97;2105401;27;46039;-56
2023/06/28 02:13:26;;;;;;;;;6.00;5.00;;;;;23.27;42.96;101407.94;2106494;27;46058;-56
2023/06/28 02:14:27;;;;;;;;;4.00;4.00;;;;;23.28;42.87;101411.53;2105223;27;45817;-57
2023/06/28 02:15:27;;;;;;;;;4.00;3.00;;;;;23.28;43.21;101414.22;2107237;27;45774;-57
2023/06/28 02:16:29;;;;;;;;;3.67;3.67;;;;;23.26;43.13;101408.91;2107365;27;45406;-57
2023/06/28 02:17:31;;;;;;;;;5.75;4.00;;;;;23.27;43.15;101413.38;2107090;27;46450;-57
2023/06/28 02:18:31;;;;;;;;;4.75;4.75;;;;;23.27;42.87;101413.38;2106165;27;46196;-57
2023/06/28 02:19:33;;;;;;;;;4.00;4.00;;;;;23.29;43.11;101416.84;2107341;27;46263;-57
2023/06/28 02:20:33;;;;;;;;;3.75;3.75;;;;;23.29;43.15;101413.25;2099351;27;46520;-57
2023/06/28 02:21:34;;;;;;;;;5.00;5.00;;;;;23.29;42.98;101411.41;2107446;27;45536;-58
2023/06/28 02:22:34;;;;;;;;;7.00;5.33;;;;;23.29;42.80;101408.72;2105191;27;46726;-59
2023/06/28 02:23:34;;;;;;;;;3.00;3.00;;;;;23.30;43.30;101413.16;2105304;27;46330;-57
2023/06/28 02:24:35;;;;;;;;;4.00;4.00;;;;;23.29;42.68;101408.72;2109464;27;47235;-56
2023/06/28 02:25:35;;;;;;;;;5.33;4.33;;;;;23.27;42.71;101407.94;2096797;28;45586;-56
2023/06/28 02:26:35;;;;;;;;;4.67;3.33;;;;;23.26;43.03;101406.22;2097781;28;45444;-57
2023/06/28 02:27:36;;;;;;;;;4.00;4.00;;;;;23.27;42.88;101407.06;2102750;27;46403;-55
2023/06/28 02:28:36;;;;;;;;;4.33;4.33;;;;;23.27;42.96;101405.25;2105749;27;45659;-56
2023/06/28 02:29:37;;;;;;;;;5.00;5.00;;;;;23.27;42.89;101404.38;2105997;27;46196;-56
2023/06/28 02:30:37;;;;;;;;;3.00;3.00;;;;;23.27;43.10;101409.78;2105373;28;47179;-56
2023/06/28 02:31:38;;;;;;;;;5.00;5.00;;;;;23.25;42.89;101401.75;2106728;27;45493;-57
2023/06/28 02:32:38;;;;;;;;;5.33;4.00;;;;;23.26;43.20;101402.63;2105772;27;45723;-57
2023/06/28 02:33:38;;;;;;;;;4.00;3.67;;;;;23.25;42.86;101403.56;2105454;28;46539;-56
2023/06/28 02:34:38;;;;;;;;;1.67;1.67;;;;;23.22;43.07;101401.06;2106027;27;45662;-58
2023/06/28 02:35:39;;;;;;;;;3.33;3.33;;;;;23.22;42.64;101399.22;2105545;28;46313;-57
2023/06/28 02:36:39;;;;;;;;;3.00;3.00;;;;;23.21;42.86;101400.19;2106102;27;45930;-56
2023/06/28 02:37:39;;;;;;;;;1.00;1.00;;;;;23.20;42.86;101402.03;2106023;27;46256;-55
2023/06/28 02:38:40;;;;;;;;;4.00;4.00;;;;;23.19;43.03;101399.44;2105884;28;45110;-56
2023/06/28 02:39:40;;;;;;;;;2.33;2.33;;;;;23.18;42.88;101403.97;2105585;27;46011;-56
2023/06/28 02:40:40;;;;;;;;;1.00;1.00;;;;;23.16;42.89;101392.38;2105195;27;45547;-56
2023/06/28 02:41:41;;;;;;;;;5.00;3.33;;;;;23.15;42.69;101400.59;2097119;28;46340;-56
2023/06/28 02:42:41;;;;;;;;;2.67;2.67;;;;;23.15;42.87;101398.75;2104100;27;46224;-56
2023/06/28 02:43:41;;;;;;;;;1.67;1.67;;;;;23.14;42.87;101398.88;2105471;28;45027;-57
2023/06/28 02:44:42;;;;;;;;;3.00;2.67;;;;;23.12;42.75;101401.66;2095719;28;45812;-56
2023/06/28 02:45:42;;;;;;;;;4.00;4.00;;;;;23.13;42.91;101395.28;2095791;28;45498;-57
2023/06/28 02:46:42;;;;;;;;;3.00;3.00;;;;;23.14;43.11;101398.88;2106041;28;46821;-56
2023/06/28 02:47:43;;;;;;;;;2.33;2.33;;;;;23.13;42.93;101402.53;2105701;27;45515;-56
2023/06/28 02:48:43;;;;;;;;;4.00;4.00;;;;;23.13;43.06;101400.69;2105627;27;46358;-56
2023/06/28 02:49:43;;;;;;;;;1.33;1.33;;;;;23.14;42.83;101394.31;2097502;28;46152;-56
2023/06/28 02:50:44;;;;;;;;;4.00;4.00;;;;;23.15;42.94;101395.19;2104993;27;45874;-57
2023/06/28 02:51:44;;;;;;;;;3.33;3.33;;;;;23.16;42.90;101397.78;2104974;28;45699;-59
2023/06/28 02:52:44;;;;;;;;;4.00;3.00;;;;;23.18;42.99;101392.28;2105709;27;46001;-58
2023/06/28 02:53:45;;;;;;;;;2.33;2.33;;;;;23.19;43.12;101394.88;2105185;27;45854;-58
2023/06/28 02:54:45;;;;;;;;;3.00;3.00;;;;;23.21;42.60;101392.06;2096638;28;45685;-59
2023/06/28 02:55:45;;;;;;;;;2.00;2.00;;;;;23.21;43.13;101389.38;2096365;28;45556;-58
2023/06/28 02:56:46;;;;;;;;;3.00;3.00;;;;;23.22;42.81;101384.81;2105654;28;45729;-59
2023/06/28 02:57:46;;;;;;;;;4.00;3.00;;;;;23.21;43.19;101383.94;2105442;27;46766;-56
2023/06/28 02:58:46;;;;;;;;;3.67;3.33;;;;;23.23;42.90;101384.72;2105754;27;46028;-59
2023/06/28 02:59:46;;;;;;;;;3.00;3.00;;;;;23.23;42.78;101389.25;2096192;28;46266;-58
2023/06/28 03:00:47;;;;;;;;;2.67;2.67;;;;;23.21;42.55;101383.94;2096234;28;46389;-58
2023/06/28 03:01:48;;;;;;;;;3.00;2.25;;;;;23.20;42.77;101384.91;2110379;27;45548;-56
2023/06/28 03:02:48;;;;;;;;;4.75;4.75;;;;;23.19;43.23;101389.47;2104760;28;46578;-58
2023/06/28 03:03:49;;;;;;;;;3.33;3.33;;;;;23.18;43.01;101393.16;2105610;27;46115;-56
2023/06/28 03:04:49;;;;;;;;;4.00;4.00;;;;;23.18;42.64;101394.97;2105603;28;46009;-57
2023/06/28 03:05:49;;;;;;;;;4.00;4.00;;;;;23.18;43.07;101389.56;2105342;27;45862;-56
2023/06/28 03:06:50;;;;;;;;;4.75;3.75;;;;;23.17;42.93;101399.53;2104971;27;45738;-57
2023/06/28 03:07:51;;;;;;;;;6.20;6.20;;;;;23.18;43.16;101394.97;2104615;28;45911;-55
2023/06/28 03:08:51;;;;;;;;;7.00;4.67;;;;;23.17;42.83;101393.25;2102403;28;48158;-55
2023/06/28 03:09:52;;;;;;;;;15.00;13.00;;;;;23.15;43.01;101396.06;2104758;27;46714;-57
2023/06/28 03:10:52;;;;;;;;;13.80;13.80;;;;;23.15;42.94;101392.47;2102873;28;46510;-55
2023/06/28 03:11:53;;;;;;;;;10.00;10.00;;;;;23.15;42.92;101393.34;2102620;27;48340;-56
2023/06/28 03:12:53;;;;;;;;;8.25;8.00;;;;;23.16;43.01;101392.38;2098335;27;46297;-57
2023/06/28 03:13:53;;;;;;;;;9.75;6.00;;;;;23.18;42.66;101394.97;2104131;27;45442;-58
2023/06/28 03:14:54;;;;;;;;;9.50;8.50;;;;;23.17;42.73;101394.09;2100019;27;45578;-57
2023/06/28 03:15:54;;;;;;;;;8.67;7.67;;;;;23.18;43.00;101394.97;2099132;28;46633;-57
2023/06/28 03:16:54;;;;;;;;;5.67;5.67;;;;;23.18;43.01;101393.16;2103406;27;45905;-56
2023/06/28 03:17:55;;;;;;;;;7.25;5.00;;;;;23.20;42.91;101395.75;2102475;28;45873;-56
2023/06/28 03:18:55;;;;;;;;;5.00;5.00;;;;;23.19;42.77;101389.47;2102665;28;45946;-57
2023/06/28 03:19:55;;;;;;;;;6.00;5.00;;;;;23.20;42.77;101388.50;2098940;27;45998;-58
2023/06/28 03:20:56;;;;;;;;;5.00;5.00;;;;;23.19;42.52;101386.75;2101716;27;46239;-56
2023/06/28 03:21:56;;;;;;;;;6.00;6.00;;;;;23.20;43.03;101390.34;2093429;28;46369;-57
2023/06/28 03:22:56;;;;;;;;;3.00;3.00;;;;;23.20;42.69;101388.50;2091446;28;45355;-57
2023/06/28 03:23:57;;;;;;;;;4.67;4.67;;;;;23.21;42.70;101392.06;2099732;28;46202;-58
2023/06/28 03:24:57;;;;;;;;;7.00;6.00;;;;;23.20;42.92;101385.78;2101113;27;46779;-57
2023/06/28 03:25:58;;;;;;;;;6.67;5.67;;;;;23.22;42.83;101388.38;2099843;28;46399;-57
2023/06/28 03:26:58;;;;;;;;;3.50;3.50;;;;;23.23;42.56;101391.97;2102834;28;46498;-56
2023/06/28 03:27:58;;;;;;;;;6.00;5.33;;;;;23.21;42.67;101392.06;2104002;27;46739;-57
2023/06/28 03:28:59;;;;;;;;;7.50;7.50;;;;;23.20;42.71;101387.63;2098737;28;46878;-57
2023/06/28 03:29:59;;;;;;;;;6.25;6.25;;;;;23.19;42.57;101392.16;2097860;28;45576;-56
2023/06/28 03:30:59;;;;;;;;;6.00;5.00;;;;;23.19;42.65;101394.88;2097687;28;46299;-59
2023/06/28 03:32:00;;;;;;;;;6.67;6.67;;;;;23.19;42.88;101391.31;2097740;28;46624;-59
2023/06/28 03:33:00;;;;;;;;;7.33;6.00;;;;;23.20;42.91;101393.91;2095476;28;45873;-58
2023/06/28 03:34:00;;;;;;;;;7.25;7.25;;;;;23.21;42.83;101397.47;2090638;28;45518;-58
2023/06/28 03:35:00;;;;;;;;;7.00;7.00;;;;;23.21;42.83;101386.66;2086102;28;46269;-58
2023/06/28 03:36:01;;;;;;;;;9.00;7.00;;;;;23.19;42.66;101389.47;2091567;28;45825;-60
2023/06/28 03:37:02;;;;;;;;;9.25;9.25;;;;;23.18;42.92;101393.16;2097925;28;45545;-58
2023/06/28 03:38:02;;;;;;;;;8.80;7.00;;;;;23.18;42.85;101387.72;2101122;28;46422;-56
2023/06/28 03:39:03;;;;;;;;;9.25;7.50;;;;;23.19;42.69;101386.75;2096998;28;47506;-56
2023/06/28 03:40:04;;;;;;;;;6.75;6.75;;;;;23.19;43.17;101392.16;2097509;28;46692;-57
2023/06/28 03:41:04;;;;;;;;;10.80;9.00;;;;;23.20;42.94;101391.19;2100433;27;46543;-56
2023/06/28 03:42:05;;;;;;;;;6.75;6.75;;;;;23.20;42.85;101395.75;2098554;28;46092;-56
2023/06/28 03:43:05;;;;;;;;;8.00;7.25;;;;;23.18;43.15;101387.72;2099593;28;46800;-57
2023/06/28 03:44:06;;;;;;;;;7.75;7.00;;;;;23.19;42.86;101388.59;2102488;27;46018;-56
2023/06/28 03:45:06;;;;;;;;;5.75;5.75;;;;;23.17;42.71;101388.69;2101068;28;46643;-56
2023/06/28 03:46:07;;;;;;;;;6.25;6.25;;;;;23.18;42.99;101385.03;2090350;28;45206;-57
2023/06/28 03:47:07;;;;;;;;;5.25;3.50;;;;;23.18;43.07;101386.84;2089084;28;46010;-57
2023/06/28 03:48:09;;;;;;;;;6.50;6.50;;;;;23.17;42.86;101390.53;2099957;28;46022;-57
2023/06/28 03:49:10;;;;;;;;;5.00;5.00;;;;;23.17;43.00;101390.53;2103017;28;45904;-57
2023/06/28 03:50:10;;;;;;;;;8.25;4.75;;;;;23.17;42.93;101385.13;2098943;28;46273;-56
2023/06/28 03:51:10;;;;;;;;;5.50;5.00;;;;;23.18;43.01;101390.44;2097249;28;46152;-56
2023/06/28 03:52:10;;;;;;;;;6.50;6.25;;;;;23.17;43.04;101379.72;2097726;28;45266;-58
2023/06/28 03:53:11;;;;;;;;;6.00;3.00;;;;;23.17;42.87;101387.81;2097584;28;46784;-56
2023/06/28 03:54:11;;;;;;;;;6.75;6.50;;;;;23.15;42.94;101387.94;2100001;28;47011;-57
2023/06/28 03:55:12;;;;;;;;;5.25;4.75;;;;;23.16;43.20;101383.38;2091921;28;46384;-57
2023/06/28 03:56:12;;;;;;;;;8.00;6.00;;;;;23.15;42.96;101387.06;2090914;28;47032;-57
2023/06/28 03:57:13;;;;;;;;;8.00;6.50;;;;;23.14;43.31;101388.03;2102654;28;46327;-57
2023/06/28 03:58:13;;;;;;;;;4.00;4.00;;;;;23.15;42.83;101389.78;2097828;28;45713;-57
2023/06/28 03:59:13;;;;;;;;;5.75;5.75;;;;;23.14;43.01;101391.59;2100082;28;46165;-56
2023/06/28 04:00:15;;;;;;;;;5.50;4.25;;;;;23.13;42.89;101383.59;2097349;28;46451;-56
2023/06/28 04:01:15;;;;;;;;;7.00;5.20;;;;;23.10;42.83;101384.63;2097913;28;45649;-55
2023/06/28 04:02:15;;;;;;;;;6.75;6.75;;;;;23.09;42.86;101388.31;2088038;28;46780;-57
2023/06/28 04:03:16;;;;;;;;;7.00;6.00;;;;;;;;2088918;28;45816;-57
2023/06/28 04:04:16;;;;;;;;;5.00;5.00;;;;;23.08;42.96;101383.84;2095022;28;46568;-56
2023/06/28 04:05:17;;;;;;;;;5.50;4.50;;;;;23.10;43.11;101383.75;2091658;28;46085;-57
2023/06/28 04:06:19;;;;;;;;;7.75;6.00;;;;;23.09;43.33;101376.59;2097710;28;45317;-57
2023/06/28 04:07:23;;;;;;;;;6.60;6.00;;;;;;;;2082322;28;46601;-57
2023/06/28 04:08:26;;;;;;;;;6.80;6.20;;;;;23.07;43.08;101383.97;2082044;28;45989;-54
2023/06/28 04:09:27;;;;;;;;;4.20;4.20;;;;;23.06;43.43;101380.38;2097670;27;45640;-57
2023/06/28 04:10:28;;;;;;;;;7.00;7.00;;;;;23.05;43.19;101377.78;2101599;27;45792;-56
2023/06/28 04:11:28;;;;;;;;;5.00;5.00;;;;;23.04;43.05;101379.63;2097647;27;45963;-57
2023/06/28 04:12:28;;;;;;;;;6.50;4.50;;;;;23.02;43.18;101378.84;2100215;28;47021;-56
2023/06/28 04:13:29;;;;;;;;;7.00;7.00;;;;;23.01;43.11;101378.94;2098608;27;46393;-56
2023/06/28 04:14:29;;;;;;;;;3.00;3.00;;;;;23.00;42.90;101390.75;2097895;27;46543;-57
2023/06/28 04:15:29;;;;;;;;;3.50;3.50;;;;;22.99;43.25;101380.84;2103807;27;46421;-57
2023/06/28 04:16:30;;;;;;;;;4.00;4.00;;;;;22.99;43.03;101384.44;2100330;27;46118;-58
2023/06/28 04:17:30;;;;;;;;;5.00;4.75;;;;;22.98;43.01;101385.41;2098343;28;45960;-57
2023/06/28 04:18:30;;;;;;;;;4.00;4.00;;;;;23.01;42.77;101387.94;2102311;27;45584;-58
2023/06/28 04:19:31;;;;;;;;;4.75;4.75;;;;;23.01;43.03;101389.78;2098786;27;46240;-58
2023/06/28 04:20:31;;;;;;;;;5.75;4.75;;;;;23.01;43.04;101389.78;2097979;28;46161;-56
2023/06/28 04:21:31;;;;;;;;;3.00;3.00;;;;;23.02;42.91;101389.69;2101598;27;46472;-56
2023/06/28 04:22:32;;;;;;;;;4.00;4.00;;;;;23.02;42.77;101389.69;2099967;28;47711;-58
2023/06/28 04:23:32;;;;;;;;;5.50;5.00;;;;;23.03;43.04;101386.00;2101563;27;46142;-59
2023/06/28 04:24:32;;;;;;;;;4.50;4.00;;;;;23.05;42.95;101388.59;2099572;27;46413;-57
2023/06/28 04:25:33;;;;;;;;;6.00;6.00;;;;;23.06;43.15;101385.78;2099382;28;46000;-56
2023/06/28 04:26:33;;;;;;;;;3.00;3.00;;;;;23.07;42.95;101381.25;2101211;27;45780;-56
2023/06/28 04:27:33;;;;;;;;;3.00;3.00;;;;;23.09;42.84;101390.13;2102160;27;46701;-59
2023/06/28 04:28:33;;;;;;;;;4.50;4.50;;;;;23.10;42.59;101381.91;2101415;27;46202;-59
2023/06/28 04:29:34;;;;;;;;;4.00;4.00;;;;;23.11;43.00;101382.78;2102069;27;45468;-57
2023/06/28 04:30:34;;;;;;;;;5.00;4.75;;;;;23.13;42.77;101380.88;2097153;28;46334;-56
2023/06/28 04:31:34;;;;;;;;;5.00;5.00;;;;;23.12;42.70;101387.22;2103744;27;45926;-57
2023/06/28 04:32:35;;;;;;;;;4.25;4.25;;;;;23.12;42.76;101384.53;2099522;27;45087;-56
2023/06/28 04:33:36;;;;;;;;;6.25;5.75;;;;;23.10;42.56;101390.03;2100384;28;45718;-57
2023/06/28 04:34:37;;;;;;;;;6.00;4.00;;;;;23.10;42.61;101389.16;2101728;27;45992;-58
2023/06/28 04:35:37;;;;;;;;;5.25;4.00;;;;;23.09;42.66;101391.00;2099402;27;45431;-56
2023/06/28 04:36:39;;;;;;;;;5.25;5.25;;;;;23.10;42.57;101383.75;2098796;27;46462;-57
2023/06/28 04:37:42;;;;;;;;;6.00;6.00;;;;;23.10;42.62;101381.91;2101058;27;46288;-59
2023/06/28 04:38:42;;;;;;;;;4.00;4.00;;;;;23.11;42.35;101380.06;2097128;27;45900;-57
2023/06/28 04:39:43;;;;;;;;;3.25;3.25;;;;;23.10;42.59;101381.03;2091058;28;45831;-56
2023/06/28 04:40:44;;;;;;;;;3.20;3.20;;;;;23.07;42.42;101381.25;2091632;28;45548;-56
2023/06/28 04:41:45;;;;;;;;;4.25;4.25;;;;;23.05;42.48;101377.78;2099298;28;46485;-58
2023/06/28 04:42:45;;;;;;;;;3.00;3.00;;;;;23.03;42.54;101383.28;2094551;28;46800;-59